Time;durP1;ratioP1;P1;durP2;ratioP2;P2;SDS_P1;SDS_P2;PMS_P1;PMS_P2;Temp;Humidity;BMP_temperature;BMP_pressure;BME280_temperature;BME280_humidity;BME280_pressure;Samples;Min_cycle;Max_cycle;Signal;HPM_P1;HPM_P2
2024/01/19 00:00:36;;;;;;;;;4.00;3.00;;;;;15.59;53.91;100266.84;146636;571;45024;-72
2024/01/19 00:03:29;;;;;;;;;4.00;3.00;;;;;15.57;54.00;100260.69;146639;638;45021;-71
2024/01/19 00:06:22;;;;;;;;;6.50;4.00;;;;;15.50;54.15;100256.16;146631;699;46012;-73
2024/01/19 00:09:26;;;;;;;;;8.75;4.75;;;;;15.44;54.78;100264.72;146636;566;45020;-76
2024/01/19 00:12:29;;;;;;;;;8.67;6.67;;;;;15.42;54.60;100270.75;146633;565;46010;-74
2024/01/19 00:15:52;;;;;;;;;7.67;5.00;;;;;15.36;54.70;100271.53;146630;577;47010;-75
2024/01/19 00:18:45;;;;;;;;;11.00;6.75;;;;;15.34;54.64;100272.31;146632;584;45916;-75
2024/01/19 00:21:40;;;;;;;;;8.75;7.00;;;;;15.32;55.03;100271.37;146634;634;46010;-75
2024/01/19 00:24:39;;;;;;;;;10.00;6.00;;;;;15.30;55.03;100270.50;146630;570;46012;-73
2024/01/19 00:27:39;;;;;;;;;6.25;4.00;;;;;15.25;55.35;100276.47;146617;579;47020;-74
2024/01/19 00:30:33;;;;;;;;;4.67;4.00;;;;;15.17;55.29;100277.09;146633;571;45916;-74
2024/01/19 00:33:41;;;;;;;;;1.67;1.67;;;;;15.07;55.81;100265.53;146636;655;45012;-72
2024/01/19 00:36:38;;;;;;;;;8.00;5.00;;;;;15.08;56.11;100279.47;146635;716;45916;-72
2024/01/19 00:39:43;;;;;;;;;4.00;3.00;;;;;15.04;56.19;100275.91;146634;708;45020;-72
2024/01/19 00:42:54;;;;;;;;;2.00;2.00;;;;;13.47;56.25;100019.56;146632;580;46012;-72
2024/01/19 00:45:57;;;;;;;;;14.50;12.00;;;;;14.89;56.87;100276.41;146633;564;46020;-70
2024/01/19 00:48:54;;;;;;;;;4.00;3.00;;;;;14.87;56.83;100272.00;146635;564;45033;-70
2024/01/19 00:51:54;;;;;;;;;3.67;3.67;;;;;14.78;57.38;100272.62;146638;707;45020;-70
2024/01/19 00:55:00;;;;;;;;;6.75;6.00;;;;;14.69;57.33;100267.16;146632;577;46014;-70
2024/01/19 00:58:00;;;;;;;;;11.75;8.75;;;;;14.61;57.93;100261.75;146628;742;46010;-72
2024/01/19 01:00:54;;;;;;;;;10.50;9.75;;;;;14.52;59.12;100271.91;146629;571;45014;-72
2024/01/19 01:04:01;;;;;;;;;;;;;;;;;;;;;
2024/01/19 01:07:03;;;;;;;;;14.25;13.50;;;;;14.42;58.81;100272.44;146632;607;46014;-71
2024/01/19 01:10:23;;;;;;;;;8.25;8.25;;;;;14.38;59.33;100266.25;146634;663;45021;-71
2024/01/19 01:13:18;;;;;;;;;12.00;10.00;;;;;14.44;59.20;100276.00;146633;586;45864;-71
2024/01/19 01:16:26;;;;;;;;;8.00;7.00;;;;;14.46;59.01;100280.41;146633;664;45021;-71
2024/01/19 01:19:43;;;;;;;;;4.75;4.75;;;;;14.45;58.91;100278.63;146634;593;45016;-71
2024/01/19 01:22:46;;;;;;;;;7.25;6.00;;;;;14.51;58.87;100280.56;146635;638;45010;-71
2024/01/19 01:25:43;;;;;;;;;16.75;13.00;;;;;14.51;59.12;100270.13;146633;638;45923;-72
2024/01/19 01:28:59;;;;;;;;;22.25;18.75;;;;;14.51;58.54;100289.25;146622;592;47012;-74
2024/01/19 01:32:07;;;;;;;;;5.00;5.00;;;;;14.49;58.79;100269.19;146628;637;46013;-74
2024/01/19 01:35:08;;;;;;;;;4.67;2.67;;;;;14.45;58.86;100267.31;146630;597;47012;-74
2024/01/19 01:38:14;;;;;;;;;3.00;3.00;;;;;14.37;59.47;100267.09;146619;564;46012;-74
2024/01/19 01:41:36;;;;;;;;;2.00;1.00;;;;;12.92;59.26;100018.78;146621;574;47030;-75
2024/01/19 01:44:43;;;;;;;;;;;;;;;;;;;;;
2024/01/19 01:47:53;;;;;;;;;5.00;3.33;;;;;14.43;59.46;100269.00;146623;618;46012;-74
2024/01/19 01:50:56;;;;;;;;;10.00;9.00;;;;;14.45;59.11;100275.13;146617;644;47012;-71
2024/01/19 01:53:57;;;;;;;;;15.75;13.00;;;;;14.43;59.47;100266.41;146620;571;46010;-71
2024/01/19 01:57:04;;;;;;;;;13.50;12.25;;;;;14.39;59.27;100277.56;146610;606;46016;-71
2024/01/19 02:00:01;;;;;;;;;17.25;15.00;;;;;14.38;59.97;100278.41;146607;573;46012;-72
2024/01/19 02:03:06;;;;;;;;;;;;;;;;;;;;;
2024/01/19 02:06:27;;;;;;;;;1.00;1.00;;;;;13.78;59.54;100157.66;146615;578;46022;-71
2024/01/19 02:09:41;;;;;;;;;2.67;1.33;;;;;14.62;58.55;100273.94;146616;606;46017;-69
2024/01/19 02:12:46;;;;;;;;;1.00;1.00;;;;;14.88;57.49;100261.56;146619;600;47020;-67
2024/01/19 02:15:38;;;;;;;;;1.00;1.00;;;;;15.16;56.71;100265.78;146614;599;46016;-70
2024/01/19 02:18:45;;;;;;;;;3.00;0.33;;;;;15.42;55.44;100270.75;146620;608;46012;-70
2024/01/19 02:21:58;;;;;;;;;;;;;;;;;;;;;
2024/01/19 02:24:56;;;;;;;;;8.50;6.75;;;;;15.63;55.43;100273.00;146620;677;47012;-70
2024/01/19 02:28:12;;;;;;;;;12.50;9.25;;;;;15.59;55.62;100273.78;146613;669;47014;-69
2024/01/19 02:31:19;;;;;;;;;10.75;10.00;;;;;15.52;55.86;100280.63;146605;585;46021;-72
2024/01/19 02:34:25;;;;;;;;;26.00;20.00;;;;;15.45;56.10;100279.59;146604;563;47014;-73
2024/01/19 02:37:23;;;;;;;;;16.25;12.75;;;;;15.35;55.61;100274.06;146607;621;46020;-70
2024/01/19 02:40:20;;;;;;;;;3.67;2.67;;;;;15.25;56.23;100280.81;146610;605;46017;-76
2024/01/19 02:43:29;;;;;;;;;4.75;2.75;;;;;15.23;56.11;100282.47;146619;599;46020;-74
2024/01/19 02:46:39;;;;;;;;;3.33;2.00;;;;;15.20;55.95;100282.41;146617;618;46013;-75
2024/01/19 02:49:59;;;;;;;;;2.33;2.33;;;;;15.20;56.53;100290.25;146621;580;46010;-73
2024/01/19 02:53:13;;;;;;;;;7.25;5.25;;;;;15.17;56.52;100283.22;146613;675;46013;-72
2024/01/19 02:56:15;;;;;;;;;1.67;1.67;;;;;14.44;56.57;100162.09;146617;632;46020;-73
2024/01/19 02:59:09;;;;;;;;;7.75;6.25;;;;;15.07;56.68;100276.00;146608;698;46016;-74
2024/01/19 03:02:01;;;;;;;;;11.25;10.00;;;;;15.08;56.94;100284.69;146606;640;48020;-74
2024/01/19 03:05:10;;;;;;;;;7.67;5.00;;;;;15.12;56.64;100281.34;146610;550;46918;-72
2024/01/19 03:08:14;;;;;;;;;4.67;4.67;;;;;15.17;56.44;100280.63;146622;575;46021;-74
2024/01/19 03:11:18;;;;;;;;;0.00;0.00;;;;;15.28;55.75;100287.84;146616;584;46016;-75
2024/01/19 03:14:13;;;;;;;;;3.75;3.00;;;;;15.34;55.18;100291.47;146619;564;46020;-73
2024/01/19 03:17:19;;;;;;;;;5.00;3.00;;;;;15.36;55.34;100276.75;146613;595;47014;-71
2024/01/19 03:20:20;;;;;;;;;9.50;7.00;;;;;15.43;55.51;100285.59;146619;602;46010;-76
2024/01/19 03:23:24;;;;;;;;;4.00;3.00;;;;;15.48;54.83;100278.75;146609;597;48012;-72
2024/01/19 03:26:46;;;;;;;;;7.50;7.00;;;;;14.96;54.34;100183.47;146615;702;47012;-72
2024/01/19 03:29:44;;;;;;;;;7.67;4.67;;;;;15.70;53.90;100282.81;146617;582;46017;-74
2024/01/19 03:32:40;;;;;;;;;6.00;3.67;;;;;15.80;53.55;100273.47;146614;582;46032;-73
2024/01/19 03:35:40;;;;;;;;;1.33;1.00;;;;;15.88;53.50;100283.22;146614;573;46918;-75
2024/01/19 03:38:43;;;;;;;;;7.00;6.25;;;;;15.97;53.92;100279.94;146618;571;46021;-74
2024/01/19 03:41:50;;;;;;;;;31.00;25.75;;;;;16.00;53.32;100273.88;146612;563;47012;-73
2024/01/19 03:44:48;;;;;;;;;3.33;1.00;;;;;15.98;53.42;100284.31;146613;580;46020;-74
2024/01/19 03:48:09;;;;;;;;;2.00;1.33;;;;;14.82;53.87;100072.59;146615;588;46915;-74
2024/01/19 03:51:01;;;;;;;;;11.50;11.25;;;;;16.05;52.99;100282.72;146612;591;46012;-75
2024/01/19 03:54:05;;;;;;;;;3.67;2.00;;;;;16.05;52.69;100283.59;146610;581;46016;-76
2024/01/19 03:57:18;;;;;;;;;1.67;1.67;;;;;16.05;52.33;100280.13;146619;569;46020;-75
2024/01/19 04:00:23;;;;;;;;;1.33;1.33;;;;;16.05;53.05;100274.87;146615;655;46013;-77
2024/01/19 04:03:34;;;;;;;;;;;;;;;;;;;;;
2024/01/19 04:06:48;;;;;;;;;2.33;0.00;;;;;15.39;53.75;100179.25;146613;599;46016;-76
2024/01/19 04:09:42;;;;;;;;;4.25;4.25;;;;;16.05;52.63;100288.84;146616;564;47012;-73
2024/01/19 04:12:36;;;;;;;;;3.00;2.00;;;;;16.06;52.73;100302.78;146612;598;46016;-73
2024/01/19 04:15:41;;;;;;;;;1.67;1.33;;;;;15.10;53.21;100147.25;146619;621;46021;-73
2024/01/19 04:18:41;;;;;;;;;4.00;2.00;;;;;16.02;52.74;100300.97;146615;584;46016;-75
2024/01/19 04:21:40;;;;;;;;;7.00;6.00;;;;;15.97;53.07;100310.44;146619;569;46021;-73
2024/01/19 04:24:43;;;;;;;;;4.00;2.00;;;;;15.94;53.51;100319.09;146617;601;46012;-73
2024/01/19 04:27:59;;;;;;;;;2.00;1.33;;;;;14.60;53.98;100086.88;146615;643;47020;-73
2024/01/19 04:30:51;;;;;;;;;2.00;2.00;;;;;15.89;53.41;100320.72;146616;617;46016;-75
2024/01/19 04:34:03;;;;;;;;;3.00;3.00;;;;;15.86;53.63;100331.09;146607;588;46020;-73
2024/01/19 04:37:01;;;;;;;;;0.00;0.00;;;;;15.83;53.94;100337.16;146617;606;46916;-74
2024/01/19 04:40:02;;;;;;;;;0.00;0.00;;;;;15.82;53.64;100347.56;146620;569;46021;-68
2024/01/19 04:43:00;;;;;;;;;3.00;2.33;;;;;15.76;53.39;100344.78;146613;586;46934;-71
2024/01/19 04:46:15;;;;;;;;;10.75;8.75;;;;;14.33;54.20;100111.37;146619;665;46020;-73
2024/01/19 04:49:22;;;;;;;;;;;;;;;;;;;;;
2024/01/19 04:52:22;;;;;;;;;12.75;11.00;;;;;15.41;54.53;100342.16;146619;588;46022;-73
2024/01/19 04:55:21;;;;;;;;;8.75;7.00;;;;;15.30;54.85;100354.06;146609;650;46016;-72
2024/01/19 04:58:25;;;;;;;;;9.50;7.00;;;;;15.19;55.17;100365.09;146620;622;46021;-74
2024/01/19 05:01:27;;;;;;;;;7.00;6.00;;;;;15.15;55.71;100362.37;146618;660;46016;-72
2024/01/19 05:04:25;;;;;;;;;14.25;12.25;;;;;15.11;55.82;100371.88;146599;563;48010;-72
2024/01/19 05:07:29;;;;;;;;;16.50;14.50;;;;;15.08;55.92;100374.41;146608;565;47014;-72
2024/01/19 05:10:38;;;;;;;;;11.75;10.00;;;;;15.02;56.85;100375.09;146610;565;47010;-74
2024/01/19 05:13:35;;;;;;;;;13.50;10.25;;;;;14.90;56.68;100377.38;146610;644;47013;-74
2024/01/19 05:16:55;;;;;;;;;20.25;18.00;;;;;14.81;57.13;100369.28;146612;571;47010;-70
2024/01/19 05:19:49;;;;;;;;;17.75;14.00;;;;;14.69;57.47;100381.97;146605;577;46016;-71
2024/01/19 05:22:59;;;;;;;;;18.25;16.50;;;;;14.53;58.06;100391.06;146611;610;46021;-71
2024/01/19 05:26:08;;;;;;;;;21.75;21.25;;;;;14.39;58.51;100388.03;146604;580;46034;-70
2024/01/19 05:29:05;;;;;;;;;13.75;13.00;;;;;14.24;58.64;100400.59;146612;564;46010;-70
2024/01/19 05:32:11;;;;;;;;;23.75;19.75;;;;;14.16;58.93;100402.06;146609;599;47014;-70
2024/01/19 05:35:12;;;;;;;;;22.25;21.50;;;;;14.08;59.18;100391.38;146605;577;47010;-70
2024/01/19 05:38:07;;;;;;;;;29.50;27.25;;;;;14.04;59.49;100394.75;146606;570;46012;-70
2024/01/19 05:41:07;;;;;;;;;14.00;12.00;;;;;14.07;59.58;100400.94;146611;563;47020;-71
2024/01/19 05:44:10;;;;;;;;;18.75;13.25;;;;;14.05;59.70;100409.56;146608;584;46016;-70
2024/01/19 05:47:14;;;;;;;;;15.50;14.75;;;;;14.02;59.44;100406.84;146610;632;47012;-69
2024/01/19 05:50:12;;;;;;;;;14.50;12.50;;;;;14.07;59.40;100408.75;146608;699;46012;-69
2024/01/19 05:53:17;;;;;;;;;15.75;15.25;;;;;14.20;58.63;100399.59;146612;571;46021;-69
2024/01/19 05:56:23;;;;;;;;;22.25;20.75;;;;;14.42;58.31;100403.75;146608;593;46016;-69
2024/01/19 05:59:24;;;;;;;;;13.50;11.75;;;;;14.64;57.59;100400.13;146611;579;47010;-69
2024/01/19 06:02:16;;;;;;;;;11.25;10.00;;;;;14.86;56.74;100405.94;146607;616;46016;-70
2024/01/19 06:05:28;;;;;;;;;21.00;16.00;;;;;15.05;56.58;100410.88;146606;592;46020;-70
2024/01/19 06:08:41;;;;;;;;;;;;;;;;;;;;;
2024/01/19 06:11:34;;;;;;;;;4.25;4.25;;;;;15.40;55.10;100429.22;146611;569;46020;-69
2024/01/19 06:14:29;;;;;;;;;24.75;19.00;;;;;15.52;54.32;100428.69;146607;687;46017;-70
2024/01/19 06:17:37;;;;;;;;;28.25;23.75;;;;;14.22;53.94;100191.03;146609;664;46020;-71
2024/01/19 06:20:48;;;;;;;;;60.25;47.75;;;;;15.70;54.69;100437.91;146609;641;46017;-71
2024/01/19 06:23:48;;;;;;;;;55.00;42.00;;;;;16.05;54.52;100437.91;146611;627;47012;-71
2024/01/19 06:26:46;;;;;;;;;28.75;28.25;;;;;16.92;55.85;100449.50;146606;586;47012;-77
2024/01/19 06:29:52;;;;;;;;;28.75;27.00;;;;;18.08;51.35;100445.59;146610;595;46010;-76
2024/01/19 06:32:48;;;;;;;;;42.75;35.25;;;;;19.09;49.36;100443.53;146605;628;47016;-76
2024/01/19 06:35:52;;;;;;;;;24.50;20.00;;;;;19.95;49.12;100441.84;146604;606;47010;-75
2024/01/19 06:39:04;;;;;;;;;45.25;34.50;;;;;20.71;45.95;100455.56;146605;655;46014;-73
2024/01/19 06:42:17;;;;;;;;;42.25;33.25;;;;;21.14;44.90;100447.84;146608;615;47020;-70
2024/01/19 06:45:19;;;;;;;;;37.00;30.00;;;;;21.52;43.48;100449.75;146609;577;46037;-72
2024/01/19 06:48:37;;;;;;;;;36.50;31.75;;;;;21.78;43.30;100446.28;146611;564;46034;-73
2024/01/19 06:51:36;;;;;;;;;34.50;30.25;;;;;21.99;43.37;100453.31;146606;609;46012;-71
2024/01/19 06:54:39;;;;;;;;;40.75;33.50;;;;;22.27;42.10;100443.66;146609;605;46010;-71
2024/01/19 06:57:54;;;;;;;;;40.25;33.25;;;;;22.48;43.90;100448.03;146607;576;46013;-71
2024/01/19 07:00:46;;;;;;;;;45.50;34.75;;;;;22.48;42.47;100446.28;146611;609;46010;-71
2024/01/19 07:03:58;;;;;;;;;41.75;33.25;;;;;22.52;43.05;100455.97;146606;572;46016;-72
2024/01/19 07:06:51;;;;;;;;;44.75;35.50;;;;;22.45;43.00;100456.84;146601;570;46010;-70
2024/01/19 07:09:52;;;;;;;;;42.50;34.25;;;;;22.30;43.94;100455.09;146608;569;46016;-72
2024/01/19 07:12:51;;;;;;;;;62.25;48.25;;;;;22.22;42.45;100450.72;146607;564;46011;-71
2024/01/19 07:15:47;;;;;;;;;34.50;29.75;;;;;22.07;43.37;100462.12;146605;627;46016;-73
2024/01/19 07:18:49;;;;;;;;;43.25;34.75;;;;;22.02;45.42;100470.03;146609;646;47020;-72
2024/01/19 07:22:04;;;;;;;;;50.25;39.50;;;;;22.16;45.70;100463.91;146607;613;47014;-70
2024/01/19 07:25:20;;;;;;;;;42.75;34.50;;;;;22.41;43.24;100457.75;146608;563;46020;-71
2024/01/19 07:28:18;;;;;;;;;40.25;31.00;;;;;22.61;44.06;100462.97;146602;569;47014;-69
2024/01/19 07:31:45;;;;;;;;;41.75;34.25;;;;;22.73;43.24;100464.72;146613;583;46020;-77
2024/01/19 07:35:01;;;;;;;;;34.00;31.50;;;;;21.43;44.92;100257.19;146604;583;46017;-73
2024/01/19 07:37:54;;;;;;;;;48.00;37.50;;;;;22.74;42.08;100461.19;146602;580;46020;-74
2024/01/19 07:40:59;;;;;;;;;32.50;27.00;;;;;21.49;43.68;100261.56;146603;612;47012;-73
2024/01/19 07:43:55;;;;;;;;;37.00;31.25;;;;;22.53;42.95;100462.12;146611;627;46010;-75
2024/01/19 07:47:16;;;;;;;;;38.75;31.75;;;;;22.35;43.29;100455.13;146603;618;47012;-73
2024/01/19 07:50:12;;;;;;;;;37.25;30.25;;;;;22.17;43.78;100461.28;146608;615;46011;-73
2024/01/19 07:53:25;;;;;;;;;33.75;30.75;;;;;20.84;45.86;100244.81;146599;582;47012;-75
2024/01/19 07:56:22;;;;;;;;;33.00;28.50;;;;;21.97;45.46;100458.63;146612;618;46020;-74
2024/01/19 07:59:16;;;;;;;;;35.75;31.25;;;;;21.96;45.48;100462.12;146607;644;46014;-73
2024/01/19 08:02:14;;;;;;;;;34.75;30.50;;;;;21.97;46.35;100463.91;146607;566;46010;-74
2024/01/19 08:05:22;;;;;;;;;34.00;29.75;;;;;22.00;46.51;100463.03;146607;581;47016;-73
2024/01/19 08:08:20;;;;;;;;;33.25;29.25;;;;;22.03;45.84;100474.47;146604;566;46020;-73
2024/01/19 08:11:21;;;;;;;;;43.50;35.75;;;;;22.06;44.82;100477.09;146604;612;47012;-74
2024/01/19 08:14:30;;;;;;;;;28.75;27.00;;;;;22.08;45.15;100475.31;146608;569;46036;-74
2024/01/19 08:17:25;;;;;;;;;19.25;17.25;;;;;22.11;43.59;100472.69;146607;578;46016;-75
2024/01/19 08:20:20;;;;;;;;;9.33;7.67;;;;;22.17;43.78;100478.91;146611;598;46011;-74
2024/01/19 08:23:19;;;;;;;;;7.33;7.00;;;;;22.26;44.26;100492.97;146612;563;46918;-74
2024/01/19 08:26:12;;;;;;;;;6.00;5.67;;;;;22.36;42.79;100483.28;146621;639;46011;-74
2024/01/19 08:29:22;;;;;;;;;4.67;4.00;;;;;22.50;42.96;100478.88;146615;576;46026;-74
2024/01/19 08:32:31;;;;;;;;;5.33;4.33;;;;;22.65;44.20;100488.53;146616;666;47010;-75
2024/01/19 08:35:49;;;;;;;;;6.33;5.00;;;;;22.76;42.64;100483.22;146614;594;46017;-74
2024/01/19 08:38:53;;;;;;;;;4.00;3.00;;;;;22.86;43.49;100487.59;146604;667;47020;-74
2024/01/19 08:42:10;;;;;;;;;4.00;4.00;;;;;22.90;41.30;100481.44;146614;721;46014;-75
2024/01/19 08:45:16;;;;;;;;;3.67;3.00;;;;;22.91;44.36;100491.09;146621;579;46010;-74
2024/01/19 08:48:23;;;;;;;;;3.00;2.00;;;;;22.98;43.50;100481.44;146611;585;46034;-75
2024/01/19 08:51:44;;;;;;;;;2.00;2.00;;;;;23.09;44.36;100479.62;146621;602;46010;-74
2024/01/19 08:54:53;;;;;;;;;3.00;1.00;;;;;23.21;42.04;100478.72;146617;599;46017;-74
2024/01/19 08:58:02;;;;;;;;;2.00;2.00;;;;;23.32;42.69;100482.16;146620;569;46020;-75
2024/01/19 09:01:09;;;;;;;;;2.00;2.00;;;;;23.44;40.28;100481.22;146613;590;46034;-74
2024/01/19 09:04:09;;;;;;;;;0.00;0.00;;;;;23.49;39.50;100477.69;146619;575;46021;-73
2024/01/19 09:07:08;;;;;;;;;0.67;0.00;;;;;23.44;41.04;100482.09;146612;565;46016;-74
2024/01/19 09:10:15;;;;;;;;;1.00;1.00;;;;;23.38;40.12;100492.72;146607;698;48010;-74
2024/01/19 09:13:24;;;;;;;;;2.00;1.00;;;;;22.27;43.02;100308.97;146610;583;46016;-75
2024/01/19 09:16:30;;;;;;;;;4.67;1.67;;;;;23.33;41.20;100490.97;146618;572;46020;-74
2024/01/19 09:19:30;;;;;;;;;0.33;0.33;;;;;23.44;40.90;100489.16;146611;564;46017;-74
2024/01/19 09:22:27;;;;;;;;;0.00;0.00;;;;;23.59;40.65;100482.91;146620;638;47012;-74
2024/01/19 09:25:30;;;;;;;;;2.33;2.00;;;;;23.68;39.60;100485.50;146610;598;46016;-75
2024/01/19 09:28:36;;;;;;;;;2.00;2.00;;;;;23.67;40.23;100474.00;146599;621;47010;-74
2024/01/19 09:31:46;;;;;;;;;3.33;2.00;;;;;23.70;40.57;100466.09;146598;583;46012;-76
2024/01/19 09:34:54;;;;;;;;;3.33;2.00;;;;;23.70;39.21;100470.50;146605;564;47020;-74
2024/01/19 09:37:51;;;;;;;;;1.00;1.00;;;;;23.68;39.41;100466.97;146599;586;46016;-76
2024/01/19 09:40:50;;;;;;;;;2.67;2.67;;;;;23.71;39.29;100459.94;146602;628;46012;-74
2024/01/19 09:44:10;;;;;;;;;2.67;2.67;;;;;23.74;40.64;100453.75;146599;569;46016;-75
2024/01/19 09:47:27;;;;;;;;;3.33;2.00;;;;;23.73;40.56;100449.31;146603;570;47010;-76
2024/01/19 09:50:39;;;;;;;;;0.00;0.00;;;;;23.71;42.04;100446.69;146600;586;47016;-75
2024/01/19 09:53:54;;;;;;;;;2.00;2.00;;;;;22.78;42.11;100270.00;146603;610;47010;-74
2024/01/19 09:56:56;;;;;;;;;3.00;3.00;;;;;23.94;40.68;100443.84;146599;652;47012;-75
2024/01/19 10:00:01;;;;;;;;;3.00;3.00;;;;;24.00;40.99;100447.34;146607;584;46020;-74
2024/01/19 10:03:16;;;;;;;;;4.33;4.00;;;;;24.10;39.74;100455.19;146602;573;46014;-75
2024/01/19 10:06:36;;;;;;;;;5.00;4.00;;;;;24.23;40.62;100431.25;146605;611;46020;-74
2024/01/19 10:09:59;;;;;;;;;4.00;2.33;;;;;24.37;41.04;100429.38;146600;577;47016;-75
2024/01/19 10:12:56;;;;;;;;;2.00;1.00;;;;;24.47;39.03;100416.91;146603;718;46020;-75
2024/01/19 10:15:57;;;;;;;;;3.00;3.00;;;;;24.55;38.14;100413.31;146603;629;46012;-74
2024/01/19 10:19:01;;;;;;;;;3.00;2.33;;;;;24.60;39.74;100414.09;146605;598;46012;-73
2024/01/19 10:22:30;;;;;;;;;2.67;1.00;;;;;23.56;41.78;100223.59;146600;598;46016;-75
2024/01/19 10:25:36;;;;;;;;;;;;;;;;;;;;;
2024/01/19 10:28:42;;;;;;;;;4.33;2.33;;;;;24.76;40.07;100409.50;146601;656;46016;-74
2024/01/19 10:31:37;;;;;;;;;4.67;1.00;;;;;24.80;38.83;100395.34;146600;564;48020;-75
2024/01/19 10:34:36;;;;;;;;;3.33;3.33;;;;;24.88;38.95;100381.97;146601;632;46918;-75
2024/01/19 10:37:35;;;;;;;;;3.33;2.00;;;;;24.95;38.69;100388.06;146604;639;46020;-76
2024/01/19 10:40:52;;;;;;;;;2.00;1.00;;;;;24.98;39.94;100378.28;146601;728;46016;-73
2024/01/19 10:44:08;;;;;;;;;3.33;1.00;;;;;25.09;39.17;100380.81;146603;596;46020;-74
2024/01/19 10:47:17;;;;;;;;;3.67;2.67;;;;;23.91;41.25;100168.50;146600;608;47012;-74
2024/01/19 10:50:30;;;;;;;;;11.75;9.25;;;;;25.27;38.60;100385.03;146600;579;48010;-75
2024/01/19 10:53:33;;;;;;;;;2.00;1.00;;;;;25.29;37.45;100381.41;146598;636;46016;-75
2024/01/19 10:56:52;;;;;;;;;;;;;;;;;;;;;
2024/01/19 10:59:47;;;;;;;;;1.33;1.00;;;;;25.23;37.89;100373.53;146601;582;47015;-75
2024/01/19 11:03:02;;;;;;;;;;;;;;;;;;;;;
2024/01/19 11:06:12;;;;;;;;;2.00;1.00;;;;;25.28;37.21;100363.75;146603;596;46016;-75
2024/01/19 11:09:19;;;;;;;;;2.67;2.00;;;;;24.14;38.74;100167.31;146607;640;46011;-75
2024/01/19 11:12:21;;;;;;;;;3.67;1.00;;;;;25.25;37.25;100366.44;146603;565;46012;-76
2024/01/19 11:15:30;;;;;;;;;3.33;2.00;;;;;25.17;38.58;100368.34;146601;740;46011;-74
2024/01/19 11:18:36;;;;;;;;;1.00;0.67;;;;;25.19;37.53;100350.62;146597;598;48016;-76
2024/01/19 11:21:34;;;;;;;;;0.67;0.00;;;;;25.22;36.73;100350.56;146601;571;46020;-75
2024/01/19 11:24:59;;;;;;;;;1.00;1.00;;;;;24.07;40.10;100125.94;146599;594;47012;-74
2024/01/19 11:28:31;;;;;;;;;2.33;0.00;;;;;25.34;38.94;100331.81;146603;574;46918;-75
2024/01/19 11:31:41;;;;;;;;;7.67;5.67;;;;;25.45;36.20;100313.09;146601;574;46014;-75
2024/01/19 11:35:15;;;;;;;;;3.33;1.00;;;;;24.52;40.26;100164.19;146606;566;46020;-75
2024/01/19 11:38:15;;;;;;;;;1.00;1.00;;;;;25.61;38.03;100316.34;146597;606;47017;-76
2024/01/19 11:41:13;;;;;;;;;0.33;0.00;;;;;25.74;36.75;100325.84;146605;571;46020;-76
2024/01/19 11:44:46;;;;;;;;;2.00;1.00;;;;;24.71;38.35;100153.31;146598;611;47012;-75
2024/01/19 11:47:45;;;;;;;;;3.00;3.00;;;;;25.68;36.77;100325.09;146602;557;47010;-75
2024/01/19 11:51:00;;;;;;;;;3.67;1.67;;;;;25.58;34.79;100321.72;146601;689;47012;-74
2024/01/19 11:54:06;;;;;;;;;5.00;1.00;;;;;25.46;38.48;100330.75;146604;592;46012;-75
2024/01/19 11:57:40;;;;;;;;;3.00;2.00;;;;;24.04;38.85;100112.72;146600;570;46014;-75
2024/01/19 12:00:42;;;;;;;;;4.00;3.67;;;;;25.42;34.72;100346.72;146606;618;46021;-75
2024/01/19 12:03:41;;;;;;;;;6.67;3.00;;;;;25.49;35.88;100351.06;146603;575;46012;-75
2024/01/19 12:06:49;;;;;;;;;3.67;2.67;;;;;24.51;36.87;100172.16;146607;689;47010;-76
2024/01/19 12:09:41;;;;;;;;;3.00;2.00;;;;;25.52;33.32;100316.50;146595;593;48014;-75
2024/01/19 12:12:49;;;;;;;;;1.00;1.00;;;;;25.51;34.85;100312.97;146607;648;46010;-74
2024/01/19 12:15:48;;;;;;;;;4.00;3.00;;;;;25.53;34.28;100313.81;146599;753;46017;-75
2024/01/19 12:18:49;;;;;;;;;2.33;1.33;;;;;25.52;32.52;100312.06;146604;632;46010;-75
2024/01/19 12:21:56;;;;;;;;;1.00;0.00;;;;;25.48;33.60;100323.66;146603;584;46012;-74
2024/01/19 12:24:55;;;;;;;;;1.00;0.00;;;;;25.48;33.45;100315.69;146605;705;45024;-75
2024/01/19 12:27:51;;;;;;;;;2.00;1.00;;;;;25.51;32.79;100315.63;146602;624;46916;-74
2024/01/19 12:30:53;;;;;;;;;2.00;2.00;;;;;25.57;34.34;100325.25;146602;599;47010;-75
2024/01/19 12:34:09;;;;;;;;;2.00;2.00;;;;;24.47;33.27;100120.09;146606;589;46012;-75
2024/01/19 12:37:08;;;;;;;;;3.00;1.00;;;;;25.61;32.71;100319.00;146631;623;45021;-75
2024/01/19 12:40:25;;;;;;;;;2.67;2.00;;;;;25.65;33.20;100325.13;146625;624;45916;-75
2024/01/19 12:43:18;;;;;;;;;2.33;1.00;;;;;25.74;33.33;100332.94;146631;570;45010;-75
2024/01/19 12:46:15;;;;;;;;;1.33;1.00;;;;;25.78;31.99;100338.16;146612;720;47012;-74
2024/01/19 12:49:30;;;;;;;;;2.00;1.00;;;;;24.66;33.29;100130.38;146626;646;46010;-74
2024/01/19 12:52:46;;;;;;;;;1.00;0.67;;;;;25.90;32.36;100323.81;146626;571;46914;-76
2024/01/19 12:55:44;;;;;;;;;3.00;2.00;;;;;26.02;33.12;100336.03;146629;586;46010;-76
2024/01/19 12:58:53;;;;;;;;;2.67;1.00;;;;;25.02;35.76;100151.91;146626;566;45016;-74
2024/01/19 13:02:06;;;;;;;;;1.00;1.00;;;;;26.20;33.58;100326.81;146630;678;46010;-74
2024/01/19 13:04:58;;;;;;;;;1.00;1.00;;;;;26.32;31.68;100328.34;146630;576;45012;-74
2024/01/19 13:08:10;;;;;;;;;1.00;1.00;;;;;26.35;31.02;100331.81;146630;566;45011;-75
2024/01/19 13:11:32;;;;;;;;;1.00;1.00;;;;;26.37;32.19;100326.50;146629;570;45016;-75
2024/01/19 13:14:35;;;;;;;;;1.00;0.00;;;;;26.42;32.47;100316.66;146630;635;45020;-74
2024/01/19 13:17:34;;;;;;;;;0.67;0.67;;;;;26.41;33.40;100314.87;146629;578;46012;-75
2024/01/19 13:20:42;;;;;;;;;0.33;0.00;;;;;25.30;34.42;100120.47;146627;582;45012;-75
2024/01/19 13:24:11;;;;;;;;;1.33;0.33;;;;;25.36;36.88;100108.88;146626;679;45016;-74
2024/01/19 13:27:16;;;;;;;;;1.00;1.00;;;;;26.75;32.60;100309.75;146628;593;46012;-74
2024/01/19 13:30:28;;;;;;;;;0.33;0.33;;;;;25.85;34.29;100133.59;146629;699;45017;-75
2024/01/19 13:33:32;;;;;;;;;4.00;2.00;;;;;26.89;32.54;100309.47;146631;575;46010;-75
2024/01/19 13:36:38;;;;;;;;;;;;;;;;;;;;;
2024/01/19 13:39:44;;;;;;;;;3.67;2.00;;;;;26.66;34.00;100307.28;146631;565;45031;-74
2024/01/19 13:42:46;;;;;;;;;3.67;3.33;;;;;26.48;31.49;100301.47;146625;595;45916;-75
2024/01/19 13:45:49;;;;;;;;;2.67;2.67;;;;;26.23;31.95;100308.13;146631;585;45023;-75
2024/01/19 13:48:59;;;;;;;;;1.00;1.00;;;;;25.99;33.75;100325.44;146620;588;48922;-75
2024/01/19 13:51:54;;;;;;;;;4.67;3.00;;;;;25.81;32.90;100324.00;146629;565;46010;-75
2024/01/19 13:55:17;;;;;;;;;3.00;1.67;;;;;25.63;36.06;100319.84;146627;596;45918;-73
2024/01/19 13:58:23;;;;;;;;;3.33;3.00;;;;;25.33;33.36;100326.53;146630;615;45914;-75
2024/01/19 14:01:26;;;;;;;;;2.00;2.00;;;;;24.92;33.12;100327.09;146625;699;46012;-75
2024/01/19 14:04:35;;;;;;;;;4.67;3.33;;;;;24.47;36.54;100316.22;146629;608;45012;-76
2024/01/19 14:07:52;;;;;;;;;3.67;1.00;;;;;24.22;36.95;100335.00;146625;592;45916;-74
2024/01/19 14:10:54;;;;;;;;;4.33;2.00;;;;;24.10;35.66;100345.72;146630;603;45028;-74
2024/01/19 14:14:16;;;;;;;;;6.00;4.33;;;;;22.88;37.08;100128.06;146630;586;46010;-74
2024/01/19 14:17:19;;;;;;;;;3.33;3.33;;;;;24.08;37.03;100339.56;146629;672;46010;-73
2024/01/19 14:20:30;;;;;;;;;3.67;2.00;;;;;24.09;36.29;100336.91;146628;576;45017;-73
2024/01/19 14:23:39;;;;;;;;;4.67;3.67;;;;;24.08;36.08;100345.75;146630;577;45915;-74
2024/01/19 14:26:51;;;;;;;;;3.33;3.33;;;;;23.93;38.22;100346.78;146632;613;45020;-74
2024/01/19 14:29:48;;;;;;;;;2.33;2.33;;;;;23.71;36.17;100355.81;146631;594;45011;-74
2024/01/19 14:32:47;;;;;;;;;7.33;5.00;;;;;23.47;37.01;100354.19;146625;608;46945;-74